Time;durP1;ratioP1;P1;durP2;ratioP2;P2;SDS_P1;SDS_P2;PMS_P1;PMS_P2;Temp;Humidity;BMP_temperature;BMP_pressure;BME280_temperature;BME280_humidity;BME280_pressure;Samples;Min_cycle;Max_cycle;Signal;HPM_P1;HPM_P2
2022/05/16 00:00:19;;;;;;;6.05;3.30;;;;;;;;;;6201854;28;20061;-69
2022/05/16 00:03:22;;;;;;;9.68;3.50;;;;;;;;;;6194616;28;20101;-68
2022/05/16 00:06:24;;;;;;;6.50;3.30;;;;;;;;;;6197607;28;20101;-69
2022/05/16 00:09:25;;;;;;;5.78;2.90;;;;;;;;;;6197558;28;20062;-69
2022/05/16 00:12:27;;;;;;;4.63;3.05;;;;;;;;;;6198121;28;20054;-69
2022/05/16 00:15:29;;;;;;;6.65;3.30;;;;;;;;;;6196568;28;20125;-69
2022/05/16 00:18:32;;;;;;;4.35;3.42;;;;;;;;;;6196594;28;20352;-68
2022/05/16 00:21:38;;;;;;;6.20;3.47;;;;;;;;;;6201537;28;20054;-70
2022/05/16 00:24:41;;;;;;;10.02;3.38;;;;;;;;;;6196137;28;20073;-69
2022/05/16 00:27:43;;;;;;;21.92;13.77;;;;;;;;;;6200684;28;20347;-73
2022/05/16 00:30:44;;;;;;;34.67;19.20;;;;;;;;;;6197604;28;20341;-68
2022/05/16 00:33:47;;;;;;;6.95;3.67;;;;;;;;;;6197730;28;20349;-69
2022/05/16 00:36:49;;;;;;;5.25;3.33;;;;;;;;;;6200257;28;20057;-68
2022/05/16 00:39:51;;;;;;;7.88;3.80;;;;;;;;;;6192662;28;20111;-68
2022/05/16 00:43:02;;;;;;;6.78;3.40;;;;;;;;;;6200064;28;20047;-68
2022/05/16 00:46:03;;;;;;;6.40;3.58;;;;;;;;;;6196248;28;20058;-69
2022/05/16 00:49:11;;;;;;;6.30;3.25;;;;;;;;;;6202332;28;20066;-68
2022/05/16 00:52:16;;;;;;;6.95;3.80;;;;;;;;;;6203786;28;20062;-68
2022/05/16 00:55:20;;;;;;;5.55;3.50;;;;;;;;;;6197043;28;20363;-69
2022/05/16 00:58:22;;;;;;;8.40;3.55;;;;;;;;;;6198323;28;20100;-68
2022/05/16 01:04:51;;;;;;;4.68;3.20;;;;;;;;;;6197485;28;20042;-68
2022/05/16 01:07:52;;;;;;;6.05;3.70;;;;;;;;;;6202551;28;20065;-69
2022/05/16 01:10:56;;;;;;;7.05;3.85;;;;;;;;;;6199006;28;20092;-69
2022/05/16 01:13:57;;;;;;;;;;;;;;;;;;6199060;28;20058;-68
2022/05/16 01:16:59;;;;;;;6.78;4.10;;;;;;;;;;6193757;28;20212;-68
2022/05/16 01:20:02;;;;;;;9.20;4.43;;;;;;;;;;6195670;28;20058;-68
2022/05/16 01:23:06;;;;;;;9.82;4.43;;;;;;;;;;6198629;28;20046;-69
2022/05/16 01:26:11;;;;;;;7.47;3.80;;;;;;;;;;6197620;28;20050;-68
2022/05/16 01:29:13;;;;;;;5.28;3.50;;;;;;;;;;6195998;28;20054;-69
2022/05/16 01:32:14;;;;;;;7.35;3.92;;;;;;;;;;6196306;28;20054;-68
2022/05/16 01:35:19;;;;;;;7.47;3.90;;;;;;;;;;6198612;28;20401;-69
2022/05/16 01:38:26;;;;;;;6.15;3.47;;;;;;;;;;6197529;28;20046;-69
2022/05/16 01:41:28;;;;;;;7.05;3.85;;;;;;;;;;6197201;28;20097;-68
2022/05/16 01:44:29;;;;;;;6.35;3.72;;;;;;;;;;6193765;28;20054;-69
2022/05/16 01:47:33;;;;;;;6.72;3.67;;;;;;;;;;6196104;28;20046;-68
2022/05/16 01:50:34;;;;;;;6.40;3.50;;;;;;;;;;6196344;28;20117;-70
2022/05/16 01:53:38;;;;;;;7.38;3.50;;;;;;;;;;6195664;28;20061;-67
2022/05/16 01:56:40;;;;;;;8.65;3.78;;;;;;;;;;6196285;28;20059;-66
2022/05/16 01:59:41;;;;;;;8.77;4.10;;;;;;;;;;6197649;28;20552;-68
2022/05/16 02:02:44;;;;;;;6.65;4.15;;;;;;;;;;6198678;28;20305;-65
2022/05/16 02:05:46;;;;;;;8.50;4.07;;;;;;;;;;6194652;28;20222;-69
2022/05/16 02:08:49;;;;;;;6.88;3.72;;;;;;;;;;6195029;28;20050;-68
2022/05/16 02:11:51;;;;;;;8.00;4.13;;;;;;;;;;6197689;28;20089;-67
2022/05/16 02:14:52;;;;;;;8.23;4.00;;;;;;;;;;6195425;28;20050;-67
2022/05/16 02:17:54;;;;;;;7.55;3.58;;;;;;;;;;6198966;28;20534;-69
2022/05/16 02:24:38;;;;;;;8.98;3.90;;;;;;;;;;6196946;28;20058;-69
2022/05/16 02:27:38;;;;;;;7.10;4.03;;;;;;;;;;6198972;28;20050;-68
2022/05/16 02:30:41;;;;;;;6.60;3.78;;;;;;;;;;6194616;28;20059;-68
2022/05/16 02:33:43;;;;;;;14.27;5.03;;;;;;;;;;6196550;28;20051;-68
2022/05/16 02:36:44;;;;;;;7.22;3.80;;;;;;;;;;6192878;28;20088;-67
2022/05/16 02:39:48;;;;;;;8.63;4.03;;;;;;;;;;6196659;28;20081;-68
2022/05/16 02:42:49;;;;;;;9.90;3.95;;;;;;;;;;6190248;28;20054;-67
2022/05/16 02:45:51;;;;;;;9.82;4.20;;;;;;;;;;6200889;28;20066;-67
2022/05/16 02:48:52;;;;;;;9.65;3.85;;;;;;;;;;6198972;28;20050;-67
2022/05/16 02:51:54;;;;;;;8.90;4.53;;;;;;;;;;6201870;28;20050;-68
2022/05/16 02:55:00;;;;;;;5.35;3.47;;;;;;;;;;6201605;28;20106;-67
2022/05/16 02:58:02;;;;;;;7.70;3.90;;;;;;;;;;6195492;28;20054;-66
2022/05/16 03:01:03;;;;;;;6.60;3.83;;;;;;;;;;6199469;28;20058;-67
2022/05/16 03:04:05;;;;;;;9.20;4.10;;;;;;;;;;6199102;28;20086;-67
2022/05/16 03:07:07;;;;;;;11.77;4.85;;;;;;;;;;6204903;28;20349;-67
2022/05/16 03:10:15;;;;;;;6.10;3.80;;;;;;;;;;6203489;28;20101;-67
2022/05/16 03:13:16;;;;;;;5.82;3.58;;;;;;;;;;6195415;28;20046;-68
2022/05/16 03:16:18;;;;;;;8.60;4.00;;;;;;;;;;6200652;28;20047;-65
2022/05/16 03:19:20;;;;;;;8.35;4.15;;;;;;;;;;6200232;28;20247;-65
2022/05/16 03:22:22;;;;;;;6.63;3.78;;;;;;;;;;6198538;28;20074;-68
2022/05/16 03:25:25;;;;;;;5.75;3.83;;;;;;;;;;6200980;28;20092;-66
2022/05/16 03:28:26;;;;;;;7.65;3.60;;;;;;;;;;6201353;28;20049;-66
2022/05/16 03:31:28;;;;;;;5.28;3.35;;;;;;;;;;6198163;28;20055;-69
2022/05/16 03:34:30;;;;;;;10.00;3.97;;;;;;;;;;6198560;28;20272;-65
2022/05/16 03:37:32;;;;;;;8.40;4.00;;;;;;;;;;6196593;28;20059;-67
2022/05/16 03:40:43;;;;;;;6.70;3.85;;;;;;;;;;6198632;28;20046;-66
2022/05/16 03:43:45;;;;;;;7.25;3.63;;;;;;;;;;6198712;28;20060;-66
2022/05/16 03:46:47;;;;;;;9.40;3.50;;;;;;;;;;6199472;28;20054;-68
2022/05/16 03:49:48;;;;;;;5.38;3.30;;;;;;;;;;6200513;28;20054;-68
2022/05/16 03:52:50;;;;;;;7.65;4.03;;;;;;;;;;6198228;28;20105;-69
2022/05/16 03:55:53;;;;;;;7.43;3.72;;;;;;;;;;6203301;28;20240;-66
2022/05/16 03:58:56;;;;;;;7.05;3.90;;;;;;;;;;6202350;28;20054;-67
2022/05/16 04:01:58;;;;;;;7.97;3.47;;;;;;;;;;6201701;28;20547;-67
2022/05/16 04:05:00;;;;;;;8.00;3.72;;;;;;;;;;6194415;28;20057;-67
2022/05/16 04:08:01;;;;;;;9.52;3.72;;;;;;;;;;6199095;28;20054;-67
2022/05/16 04:11:04;;;;;;;9.25;4.00;;;;;;;;;;6190909;28;20051;-67
2022/05/16 04:14:07;;;;;;;8.75;3.72;;;;;;;;;;6194446;28;20093;-67
2022/05/16 04:17:08;;;;;;;6.60;4.20;;;;;;;;;;6194912;28;20053;-68
2022/05/16 04:20:12;;;;;;;10.57;4.30;;;;;;;;;;6196906;28;20116;-68
2022/05/16 04:23:13;;;;;;;9.57;4.45;;;;;;;;;;6196907;28;20046;-67
2022/05/16 04:26:16;;;;;;;9.52;3.75;;;;;;;;;;6197085;28;20050;-67
2022/05/16 04:29:18;;;;;;;7.57;3.55;;;;;;;;;;6203181;28;20046;-68
2022/05/16 04:32:20;;;;;;;5.95;3.47;;;;;;;;;;6185442;28;20113;-68
2022/05/16 04:35:21;;;;;;;6.97;3.78;;;;;;;;;;6195530;28;20059;-69
2022/05/16 04:38:23;;;;;;;7.20;3.78;;;;;;;;;;6191391;28;20050;-67
2022/05/16 04:44:45;;;;;;;9.80;4.00;;;;;;;;;;6198566;28;20062;-69
2022/05/16 04:47:47;;;;;;;6.15;3.70;;;;;;;;;;6197162;28;20108;-68
2022/05/16 04:50:49;;;;;;;8.60;3.80;;;;;;;;;;6196058;28;20334;-67
2022/05/16 04:53:51;;;;;;;8.48;4.10;;;;;;;;;;6196430;28;20537;-67
2022/05/16 04:56:54;;;;;;;8.57;3.60;;;;;;;;;;6197199;28;20051;-67
2022/05/16 04:59:56;;;;;;;6.78;3.28;;;;;;;;;;6195289;28;20264;-67
2022/05/16 05:02:58;;;;;;;5.82;2.88;;;;;;;;;;6196408;28;20041;-65
2022/05/16 05:05:59;;;;;;;8.00;3.60;;;;;;;;;;6197003;28;20051;-64
2022/05/16 05:09:01;;;;;;;7.40;3.33;;;;;;;;;;6194823;28;20054;-66
2022/05/16 05:15:23;;;;;;;6.25;3.25;;;;;;;;;;6194214;28;20085;-65
2022/05/16 05:18:25;;;;;;;7.05;3.70;;;;;;;;;;6197337;28;20225;-68
2022/05/16 05:21:27;;;;;;;10.32;3.45;;;;;;;;;;6194085;28;20329;-68
2022/05/16 05:24:29;;;;;;;9.60;3.17;;;;;;;;;;6196952;28;20122;-69
2022/05/16 05:27:33;;;;;;;11.27;3.00;;;;;;;;;;6199610;28;20062;-68
2022/05/16 05:30:34;;;;;;;9.65;3.65;;;;;;;;;;6197693;28;20121;-68
2022/05/16 05:33:36;;;;;;;6.07;3.10;;;;;;;;;;6196484;28;20058;-67
2022/05/16 05:36:38;;;;;;;6.18;3.05;;;;;;;;;;6195128;28;20050;-67
2022/05/16 05:39:40;;;;;;;7.38;3.67;;;;;;;;;;6194804;28;20062;-67
2022/05/16 05:42:43;;;;;;;5.20;3.05;;;;;;;;;;6195431;28;20066;-67
2022/05/16 05:45:44;;;;;;;9.20;3.38;;;;;;;;;;6194742;28;20328;-67
2022/05/16 05:48:46;;;;;;;8.00;3.20;;;;;;;;;;6193877;28;20047;-67
2022/05/16 05:51:48;;;;;;;8.05;3.65;;;;;;;;;;6195760;28;20089;-67
2022/05/16 05:54:49;;;;;;;7.75;3.33;;;;;;;;;;6196252;28;20046;-67
2022/05/16 05:57:53;;;;;;;8.52;3.83;;;;;;;;;;6193186;28;20149;-67
2022/05/16 06:00:54;;;;;;;6.50;3.45;;;;;;;;;;6194369;28;20053;-66
2022/05/16 06:03:56;;;;;;;11.43;5.05;;;;;;;;;;6193686;28;20062;-67
2022/05/16 06:06:57;;;;;;;15.48;3.88;;;;;;;;;;6195378;28;20058;-67
2022/05/16 06:09:59;;;;;;;7.70;3.20;;;;;;;;;;6192962;28;20112;-66
2022/05/16 06:13:02;;;;;;;8.55;3.47;;;;;;;;;;6191926;28;20046;-66
2022/05/16 06:16:05;;;;;;;6.72;3.33;;;;;;;;;;6192400;28;20058;-67
2022/05/16 06:19:06;;;;;;;11.32;3.88;;;;;;;;;;6193608;28;20098;-70
2022/05/16 06:22:08;;;;;;;8.88;3.58;;;;;;;;;;6194342;28;20116;-67
2022/05/16 06:28:37;;;;;;;7.05;3.83;;;;;;;;;;6192891;28;20054;-70
2022/05/16 06:31:39;;;;;;;12.43;3.95;;;;;;;;;;6193700;28;20069;-69
2022/05/16 06:34:40;;;;;;;7.03;3.13;;;;;;;;;;6197626;28;20051;-70
2022/05/16 06:37:42;;;;;;;9.10;2.90;;;;;;;;;;6200919;28;20396;-70
2022/05/16 06:40:46;;;;;;;12.50;3.55;;;;;;;;;;6209796;28;20062;-70
2022/05/16 06:43:48;;;;;;;7.53;3.33;;;;;;;;;;6204063;28;20058;-69
2022/05/16 06:46:50;;;;;;;7.18;3.33;;;;;;;;;;6201304;28;20341;-70
2022/05/16 06:49:52;;;;;;;8.48;3.63;;;;;;;;;;6200771;28;20059;-69
2022/05/16 06:52:53;;;;;;;7.88;3.00;;;;;;;;;;6195923;28;20054;-69
2022/05/16 06:55:55;;;;;;;5.72;2.95;;;;;;;;;;6197304;28;20069;-70
2022/05/16 06:58:58;;;;;;;6.72;3.42;;;;;;;;;;6198723;28;20264;-68
2022/05/16 07:02:00;;;;;;;5.55;3.80;;;;;;;;;;6198273;28;20074;-68
2022/05/16 07:05:03;;;;;;;8.55;3.47;;;;;;;;;;6201735;28;20062;-68
2022/05/16 07:08:05;;;;;;;11.63;3.30;;;;;;;;;;6198595;28;20097;-68
2022/05/16 07:11:07;;;;;;;8.20;3.30;;;;;;;;;;6200838;28;20093;-69
2022/05/16 07:14:10;;;;;;;9.68;3.67;;;;;;;;;;6196318;28;20057;-68
2022/05/16 07:17:12;;;;;;;9.68;3.20;;;;;;;;;;6197209;28;20379;-69
2022/05/16 07:20:14;;;;;;;10.30;3.28;;;;;;;;;;6195879;28;20050;-68
2022/05/16 07:23:16;;;;;;;8.77;3.10;;;;;;;;;;6197432;28;20062;-68
2022/05/16 07:29:38;;;;;;;9.55;3.22;;;;;;;;;;6202021;28;20337;-68
2022/05/16 07:32:41;;;;;;;11.88;3.30;;;;;;;;;;6194886;28;20059;-69
2022/05/16 07:35:43;;;;;;;10.02;3.72;;;;;;;;;;6200287;28;20058;-70
2022/05/16 07:38:44;;;;;;;4.10;3.10;;;;;;;;;;6195114;28;20059;-69
2022/05/16 07:41:46;;;;;;;11.15;3.00;;;;;;;;;;6197428;28;20113;-69
2022/05/16 07:44:50;;;;;;;6.93;2.78;;;;;;;;;;6198568;28;20333;-69
2022/05/16 07:47:51;;;;;;;6.53;3.38;;;;;;;;;;6197829;28;20333;-69
2022/05/16 07:50:53;;;;;;;8.30;3.30;;;;;;;;;;6193524;28;20101;-69
2022/05/16 07:53:55;;;;;;;9.20;2.92;;;;;;;;;;6196676;28;20124;-69
2022/05/16 07:56:57;;;;;;;8.57;2.88;;;;;;;;;;6194485;28;20065;-71
2022/05/16 08:00:00;;;;;;;6.75;2.65;;;;;;;;;;6197083;28;20106;-69
2022/05/16 08:03:04;;;;;;;5.68;2.60;;;;;;;;;;6197486;28;20063;-68
2022/05/16 08:06:06;;;;;;;9.77;2.78;;;;;;;;;;6197380;28;20057;-69
2022/05/16 08:12:31;;;;;;;8.77;2.72;;;;;;;;;;6195593;28;20062;-69
2022/05/16 08:15:35;;;;;;;5.43;2.80;;;;;;;;;;6196392;28;20351;-69
2022/05/16 08:18:37;;;;;;;4.68;2.70;;;;;;;;;;6190863;28;20085;-69
2022/05/16 08:21:39;;;;;;;7.35;2.47;;;;;;;;;;6199780;28;20065;-69
2022/05/16 08:24:41;;;;;;;5.78;2.78;;;;;;;;;;6196447;28;20076;-69
2022/05/16 08:27:42;;;;;;;4.65;2.85;;;;;;;;;;6196961;28;20502;-69
2022/05/16 08:30:46;;;;;;;5.82;2.67;;;;;;;;;;6198121;28;20130;-69
2022/05/16 08:33:47;;;;;;;7.78;2.72;;;;;;;;;;6196815;28;20054;-70
2022/05/16 08:40:09;;;;;;;5.03;2.35;;;;;;;;;;6197291;28;20450;-69
2022/05/16 08:43:16;;;;;;;9.73;3.45;;;;;;;;;;6201114;28;20061;-69
2022/05/16 08:46:31;;;;;;;8.35;3.00;;;;;;;;;;6195789;28;20054;-69
2022/05/16 08:49:35;;;;;;;10.25;3.33;;;;;;;;;;6195490;28;20061;-69
2022/05/16 08:52:41;;;;;;;5.03;2.65;;;;;;;;;;6193597;28;20353;-69
2022/05/16 08:55:45;;;;;;;7.57;2.65;;;;;;;;;;6194845;28;20061;-67
2022/05/16 08:58:53;;;;;;;5.30;2.70;;;;;;;;;;6193363;28;20059;-67
2022/05/16 09:02:01;;;;;;;4.93;2.40;;;;;;;;;;6194234;28;20053;-67
2022/05/16 09:05:08;;;;;;;7.53;2.90;;;;;;;;;;6200666;28;20054;-67
2022/05/16 09:08:13;;;;;;;10.30;2.65;;;;;;;;;;6198393;28;20104;-67
2022/05/16 09:11:18;;;;;;;7.72;2.78;;;;;;;;;;6195403;28;20057;-67
2022/05/16 09:14:31;;;;;;;10.57;3.03;;;;;;;;;;6194794;28;20050;-67
2022/05/16 09:17:49;;;;;;;5.75;2.95;;;;;;;;;;6195512;28;20072;-67
2022/05/16 09:20:58;;;;;;;7.50;3.30;;;;;;;;;;6196250;28;20054;-67
2022/05/16 09:24:04;;;;;;;6.88;2.75;;;;;;;;;;6197242;28;20053;-68
2022/05/16 09:27:10;;;;;;;7.20;3.13;;;;;;;;;;6197589;28;20051;-67
2022/05/16 09:30:15;;;;;;;5.53;2.80;;;;;;;;;;6196217;28;20241;-67
2022/05/16 09:33:21;;;;;;;4.47;2.60;;;;;;;;;;6196219;28;20085;-67
2022/05/16 09:36:25;;;;;;;7.25;2.90;;;;;;;;;;6193491;28;20286;-67
2022/05/16 09:39:31;;;;;;;9.40;3.17;;;;;;;;;;6194502;28;20070;-67
2022/05/16 09:42:34;;;;;;;5.88;2.80;;;;;;;;;;6194960;28;20166;-67
2022/05/16 09:45:36;;;;;;;4.90;2.50;;;;;;;;;;6196787;28;20101;-67
2022/05/16 09:48:39;;;;;;;5.55;2.45;;;;;;;;;;6200734;28;20093;-66
2022/05/16 09:51:47;;;;;;;5.40;2.70;;;;;;;;;;6194902;28;20047;-66
2022/05/16 09:55:00;;;;;;;7.93;3.03;;;;;;;;;;6196447;28;20301;-67
2022/05/16 09:58:04;;;;;;;5.47;3.20;;;;;;;;;;6193500;28;20057;-66
2022/05/16 10:01:07;;;;;;;8.05;3.30;;;;;;;;;;6197217;28;20058;-68
2022/05/16 10:04:13;;;;;;;9.32;3.40;;;;;;;;;;6194098;28;20058;-66
2022/05/16 10:07:15;;;;;;;4.90;2.65;;;;;;;;;;6199021;28;20050;-67
2022/05/16 10:10:19;;;;;;;5.97;2.87;;;;;;;;;;6197858;28;20046;-66
2022/05/16 10:13:21;;;;;;;6.70;2.85;;;;;;;;;;6194433;28;20068;-66
2022/05/16 10:16:23;;;;;;;6.22;2.78;;;;;;;;;;6196915;28;20073;-66
2022/05/16 10:19:28;;;;;;;9.60;2.90;;;;;;;;;;6195003;28;20121;-66
2022/05/16 10:22:31;;;;;;;5.80;2.78;;;;;;;;;;6194193;28;20054;-67
2022/05/16 10:25:36;;;;;;;5.10;2.85;;;;;;;;;;6195617;28;20050;-66
2022/05/16 10:28:41;;;;;;;6.40;3.00;;;;;;;;;;6195536;28;20662;-66
2022/05/16 10:35:13;;;;;;;6.82;2.90;;;;;;;;;;6172971;28;20146;-66
2022/05/16 10:38:21;;;;;;;6.75;2.80;;;;;;;;;;6193988;28;20085;-66
2022/05/16 10:41:27;;;;;;;6.55;2.63;;;;;;;;;;6195636;28;20050;-67
2022/05/16 10:44:31;;;;;;;13.43;6.50;;;;;;;;;;6197119;28;20252;-67
2022/05/16 10:47:35;;;;;;;42.55;31.35;;;;;;;;;;6193755;28;20055;-67
2022/05/16 10:50:44;;;;;;;7.25;3.80;;;;;;;;;;6191304;28;20058;-66
2022/05/16 10:53:55;;;;;;;4.07;2.58;;;;;;;;;;6190812;28;20054;-68
2022/05/16 10:57:07;;;;;;;6.15;2.80;;;;;;;;;;6200451;28;20118;-67
2022/05/16 11:00:11;;;;;;;6.85;2.95;;;;;;;;;;6191075;28;20321;-66
2022/05/16 11:03:35;;;;;;;5.35;3.15;;;;;;;;;;6195862;28;20054;-66
2022/05/16 11:06:57;;;;;;;5.88;3.42;;;;;;;;;;6191810;28;20061;-66
2022/05/16 11:10:04;;;;;;;7.60;2.77;;;;;;;;;;6192977;28;20050;-66
2022/05/16 11:13:12;;;;;;;11.77;3.25;;;;;;;;;;6196060;28;20066;-67
2022/05/16 11:16:17;;;;;;;10.75;3.97;;;;;;;;;;6191225;28;20100;-67
2022/05/16 11:19:24;;;;;;;6.80;3.45;;;;;;;;;;6189008;28;20532;-66
2022/05/16 11:22:32;;;;;;;6.43;3.20;;;;;;;;;;6194755;28;20053;-66
2022/05/16 11:25:40;;;;;;;9.63;3.78;;;;;;;;;;6193365;28;20066;-67
2022/05/16 11:32:26;;;;;;;40.10;29.45;;;;;;;;;;6197573;28;20177;-68
2022/05/16 11:35:35;;;;;;;25.77;20.08;;;;;;;;;;6197863;28;20386;-67
2022/05/16 11:38:55;;;;;;;10.43;7.68;;;;;;;;;;6198068;28;20137;-67
2022/05/16 11:42:05;;;;;;;8.48;3.42;;;;;;;;;;6201613;28;20321;-68
2022/05/16 11:45:16;;;;;;;7.72;3.10;;;;;;;;;;6199746;28;20329;-67
2022/05/16 11:48:24;;;;;;;4.28;2.88;;;;;;;;;;6198343;28;20057;-67
2022/05/16 11:51:36;;;;;;;6.32;2.70;;;;;;;;;;6196301;28;20304;-67
2022/05/16 11:54:44;;;;;;;5.80;2.95;;;;;;;;;;6193191;28;20084;-66
2022/05/16 12:01:08;;;;;;;6.75;3.20;;;;;;;;;;6193773;28;20472;-67
2022/05/16 12:04:14;;;;;;;7.00;3.65;;;;;;;;;;6200298;28;20058;-67
2022/05/16 12:07:23;;;;;;;3.83;3.08;;;;;;;;;;6199746;28;20300;-67
2022/05/16 12:10:28;;;;;;;8.60;3.38;;;;;;;;;;6193215;28;20058;-68
2022/05/16 12:13:33;;;;;;;5.72;2.90;;;;;;;;;;6195068;28;20063;-66
2022/05/16 12:16:42;;;;;;;7.45;2.85;;;;;;;;;;6195122;28;20066;-66
2022/05/16 12:19:46;;;;;;;6.03;3.17;;;;;;;;;;6194772;28;20058;-66
2022/05/16 12:22:48;;;;;;;8.77;4.15;;;;;;;;;;6197586;28;20047;-68
2022/05/16 12:25:51;;;;;;;5.30;2.88;;;;;;;;;;6197608;28;20329;-67
2022/05/16 12:29:14;;;;;;;6.97;3.15;;;;;;;;;;6196956;28;20046;-67
2022/05/16 12:32:38;;;;;;;8.30;3.33;;;;;;;;;;6197987;28;20054;-69
2022/05/16 12:35:43;;;;;;;5.82;3.17;;;;;;;;;;6197228;28;20149;-69
2022/05/16 12:38:46;;;;;;;6.93;3.28;;;;;;;;;;6196003;28;20436;-69
2022/05/16 12:42:01;;;;;;;5.95;3.10;;;;;;;;;;6199371;28;20355;-69
2022/05/16 12:45:06;;;;;;;5.03;3.40;;;;;;;;;;6199912;28;20046;-69
2022/05/16 12:48:32;;;;;;;8.25;3.72;;;;;;;;;;6195551;28;20069;-70
2022/05/16 12:51:45;;;;;;;4.50;3.35;;;;;;;;;;6196538;28;20050;-70
2022/05/16 12:54:57;;;;;;;6.68;3.40;;;;;;;;;;6199198;28;20112;-70
2022/05/16 12:58:08;;;;;;;4.50;2.95;;;;;;;;;;6198642;28;20045;-71
2022/05/16 13:01:21;;;;;;;8.20;3.17;;;;;;;;;;6202796;28;20046;-70
2022/05/16 13:04:31;;;;;;;7.30;3.13;;;;;;;;;;6201197;28;20073;-69
2022/05/16 13:07:42;;;;;;;29.58;26.33;;;;;;;;;;6200126;28;20046;-70
2022/05/16 13:10:57;;;;;;;10.38;7.40;;;;;;;;;;6194875;28;20051;-70
2022/05/16 13:14:06;;;;;;;7.90;4.35;;;;;;;;;;6196316;28;20054;-68
2022/05/16 13:17:09;;;;;;;6.63;3.40;;;;;;;;;;6199157;28;20060;-69
2022/05/16 13:20:15;;;;;;;4.32;3.30;;;;;;;;;;6193852;28;20313;-70
2022/05/16 13:23:17;;;;;;;5.22;3.08;;;;;;;;;;6197201;28;20233;-71
2022/05/16 13:29:39;;;;;;;5.35;3.33;;;;;;;;;;6195355;28;20054;-70
2022/05/16 13:32:41;;;;;;;5.22;3.00;;;;;;;;;;6194316;28;20058;-70
2022/05/16 13:35:43;;;;;;;7.38;3.45;;;;;;;;;;6196498;28;20054;-70
2022/05/16 13:38:46;;;;;;;5.00;3.30;;;;;;;;;;6197405;28;20054;-70
2022/05/16 13:41:55;;;;;;;7.88;3.50;;;;;;;;;;6197378;28;20219;-71
2022/05/16 13:44:59;;;;;;;6.25;2.97;;;;;;;;;;6194223;28;20293;-71
2022/05/16 13:48:04;;;;;;;5.60;3.08;;;;;;;;;;6195622;28;20153;-71
2022/05/16 13:51:06;;;;;;;5.40;3.38;;;;;;;;;;6190449;28;20288;-72
2022/05/16 13:54:14;;;;;;;11.30;3.67;;;;;;;;;;6194041;28;20046;-71
2022/05/16 13:57:22;;;;;;;7.80;3.53;;;;;;;;;;6190882;28;20054;-69
2022/05/16 14:00:37;;;;;;;4.60;3.20;;;;;;;;;;6193891;28;20101;-70
2022/05/16 14:03:39;;;;;;;12.73;3.53;;;;;;;;;;6193756;28;20113;-71
2022/05/16 14:06:42;;;;;;;11.48;3.47;;;;;;;;;;6193275;28;20065;-70
2022/05/16 14:09:47;;;;;;;6.78;3.45;;;;;;;;;;6194149;28;20065;-70
2022/05/16 14:12:52;;;;;;;6.40;3.38;;;;;;;;;;6184073;28;20157;-69
2022/05/16 14:15:58;;;;;;;5.53;2.97;;;;;;;;;;6182575;28;20046;-70
2022/05/16 14:19:06;;;;;;;3.75;3.00;;;;;;;;;;6192169;28;20073;-71
2022/05/16 14:22:12;;;;;;;4.75;2.95;;;;;;;;;;6195755;28;20053;-71
2022/05/16 14:25:24;;;;;;;6.30;3.65;;;;;;;;;;6188774;28;20094;-71
2022/05/16 14:28:27;;;;;;;9.80;6.22;;;;;;;;;;6191881;28;20074;-69
2022/05/16 14:31:41;;;;;;;6.50;3.42;;;;;;;;;;6193625;28;20061;-68
2022/05/16 14:34:44;;;;;;;8.00;5.65;;;;;;;;;;6189727;28;20087;-68
2022/05/16 14:37:50;;;;;;;12.43;3.53;;;;;;;;;;6192005;28;20054;-70
2022/05/16 14:40:51;;;;;;;11.75;3.47;;;;;;;;;;6187286;28;20047;-70
2022/05/16 14:44:01;;;;;;;8.23;3.28;;;;;;;;;;6193619;28;20055;-70
2022/05/16 14:47:22;;;;;;;7.18;3.10;;;;;;;;;;6190930;28;20070;-70
2022/05/16 14:50:25;;;;;;;10.63;3.30;;;;;;;;;;6192759;28;20053;-70
2022/05/16 14:53:27;;;;;;;16.20;4.32;;;;;;;;;;6193102;28;20061;-69
2022/05/16 14:56:29;;;;;;;;;;;;;;;;;;6191592;28;20295;-68
2022/05/16 14:59:31;;;;;;;21.70;12.07;;;;;;;;;;6192416;28;19997;-70
2022/05/16 15:05:54;;;;;;;7.95;3.58;;;;;;;;;;6195233;28;20534;-71
2022/05/16 15:08:57;;;;;;;8.80;3.90;;;;;;;;;;6186864;28;20050;-71
2022/05/16 15:12:02;;;;;;;9.52;3.22;;;;;;;;;;6190752;28;20078;-71
2022/05/16 15:15:05;;;;;;;5.95;2.95;;;;;;;;;;6199415;28;20038;-71
2022/05/16 15:18:08;;;;;;;8.95;3.67;;;;;;;;;;6194000;28;20054;-71
2022/05/16 15:21:11;;;;;;;7.93;3.97;;;;;;;;;;6194017;28;20042;-70
2022/05/16 15:24:13;;;;;;;;;;;;;;;;;;6194814;28;20073;-70
2022/05/16 15:27:15;;;;;;;5.88;3.17;;;;;;;;;;6193533;28;19932;-71
2022/05/16 15:30:17;;;;;;;6.07;3.67;;;;;;;;;;6190649;28;20227;-71
2022/05/16 15:33:20;;;;;;;6.90;3.38;;;;;;;;;;6192095;28;20058;-71
2022/05/16 15:36:22;;;;;;;7.90;3.40;;;;;;;;;;6193463;28;20090;-70
2022/05/16 15:39:25;;;;;;;5.20;3.27;;;;;;;;;;6195106;28;20137;-71
2022/05/16 15:42:28;;;;;;;9.30;4.38;;;;;;;;;;6198138;28;20104;-70
2022/05/16 15:45:29;;;;;;;6.22;3.35;;;;;;;;;;6203025;28;20050;-70
2022/05/16 15:48:33;;;;;;;6.72;3.63;;;;;;;;;;6202369;28;20219;-70
2022/05/16 15:51:35;;;;;;;13.80;3.72;;;;;;;;;;6202064;28;20218;-70
2022/05/16 15:54:37;;;;;;;12.00;3.60;;;;;;;;;;6200185;28;20238;-70
2022/05/16 15:57:40;;;;;;;15.80;3.60;;;;;;;;;;6199599;28;20061;-68
2022/05/16 16:00:44;;;;;;;40.05;27.38;;;;;;;;;;6196275;28;20478;-68
2022/05/16 16:10:25;;;;;;;7.28;3.35;;;;;;;;;;6202144;28;20058;-70
2022/05/16 16:13:28;;;;;;;6.72;3.35;;;;;;;;;;6199050;28;20124;-70
2022/05/16 16:16:30;;;;;;;4.22;3.50;;;;;;;;;;6201957;28;20058;-70
2022/05/16 16:19:39;;;;;;;7.67;3.67;;;;;;;;;;6198120;28;20053;-70
2022/05/16 16:22:41;;;;;;;6.10;3.65;;;;;;;;;;6202137;28;20454;-70
2022/05/16 16:25:45;;;;;;;18.90;4.90;;;;;;;;;;6202105;28;20054;-71
2022/05/16 16:28:46;;;;;;;6.50;4.28;;;;;;;;;;6204323;28;20053;-69
2022/05/16 16:31:48;;;;;;;6.73;5.13;;;;;;;;;;6204231;28;20102;-69
2022/05/16 16:34:51;;;;;;;8.52;4.63;;;;;;;;;;6196896;28;20234;-69
2022/05/16 16:37:52;;;;;;;9.88;4.13;;;;;;;;;;6196798;28;20058;-68
2022/05/16 16:41:00;;;;;;;12.10;4.82;;;;;;;;;;6200245;28;20059;-68
2022/05/16 16:44:01;;;;;;;9.93;4.40;;;;;;;;;;6200078;28;20210;-68
2022/05/16 16:47:03;;;;;;;8.38;4.82;;;;;;;;;;6205447;28;20297;-69
2022/05/16 16:50:08;;;;;;;9.02;4.38;;;;;;;;;;6202702;28;20082;-68
2022/05/16 16:59:48;;;;;;;5.95;3.88;;;;;;;;;;6201077;28;20058;-69
2022/05/16 17:02:51;;;;;;;10.68;4.25;;;;;;;;;;6198520;28;20073;-69
2022/05/16 17:05:54;;;;;;;10.75;4.28;;;;;;;;;;6203410;28;20065;-68
2022/05/16 17:08:57;;;;;;;10.50;4.90;;;;;;;;;;6199989;28;20127;-69
2022/05/16 17:11:59;;;;;;;12.40;3.63;;;;;;;;;;6192220;28;20435;-69
2022/05/16 17:15:01;;;;;;;7.18;3.78;;;;;;;;;;6191968;28;20434;-69
2022/05/16 17:18:03;;;;;;;15.15;3.45;;;;;;;;;;6192502;28;20058;-69
2022/05/16 17:21:07;;;;;;;7.40;2.95;;;;;;;;;;6201693;28;20058;-70
2022/05/16 17:24:09;;;;;;;5.55;2.63;;;;;;;;;;6198846;28;20054;-70
2022/05/16 17:27:11;;;;;;;6.32;2.00;;;;;;;;;;6200654;28;20169;-69
2022/05/16 17:30:13;;;;;;;4.67;1.93;;;;;;;;;;6197840;28;20057;-69
2022/05/16 17:33:15;;;;;;;3.60;2.10;;;;;;;;;;6201639;28;20285;-70
2022/05/16 17:36:19;;;;;;;5.72;1.90;;;;;;;;;;6201697;28;20047;-69
2022/05/16 17:39:22;;;;;;;5.80;2.10;;;;;;;;;;6201842;28;20229;-72
2022/05/16 17:42:23;;;;;;;6.35;1.85;;;;;;;;;;6202552;28;20066;-72
2022/05/16 17:45:25;;;;;;;3.63;2.03;;;;;;;;;;6200836;28;20063;-72
2022/05/16 17:48:26;;;;;;;3.28;1.70;;;;;;;;;;6199170;28;20249;-71
2022/05/16 17:51:31;;;;;;;6.55;1.88;;;;;;;;;;6207526;28;20058;-71
2022/05/16 17:54:37;;;;;;;4.18;2.08;;;;;;;;;;6204335;28;20053;-72
2022/05/16 17:57:39;;;;;;;3.42;1.75;;;;;;;;;;6199651;28;20054;-71
2022/05/16 18:00:42;;;;;;;6.70;2.80;;;;;;;;;;6207279;28;20053;-67
2022/05/16 18:03:45;;;;;;;5.93;2.00;;;;;;;;;;6204717;28;20054;-67
2022/05/16 18:06:49;;;;;;;6.68;2.30;;;;;;;;;;6202908;28;20050;-67
2022/05/16 18:09:52;;;;;;;5.70;1.95;;;;;;;;;;6199603;28;20096;-68
2022/05/16 18:12:55;;;;;;;5.63;1.48;;;;;;;;;;6198145;28;20054;-67
2022/05/16 18:15:56;;;;;;;4.68;1.98;;;;;;;;;;6194855;28;20054;-68
2022/05/16 18:18:58;;;;;;;4.00;1.90;;;;;;;;;;6190864;28;20046;-68
2022/05/16 18:22:01;;;;;;;6.72;1.95;;;;;;;;;;6194832;28;20062;-68
2022/05/16 18:25:09;;;;;;;4.82;1.73;;;;;;;;;;6197466;28;20404;-67
2022/05/16 18:28:11;;;;;;;5.55;1.95;;;;;;;;;;6198502;28;20050;-67
2022/05/16 18:31:13;;;;;;;6.13;2.23;;;;;;;;;;6193648;28;20059;-68
2022/05/16 18:34:18;;;;;;;4.45;1.70;;;;;;;;;;6191120;28;20070;-66
2022/05/16 18:37:21;;;;;;;5.38;2.00;;;;;;;;;;6204362;28;20185;-67
2022/05/16 18:40:23;;;;;;;4.55;2.20;;;;;;;;;;6200233;28;20199;-67
2022/05/16 18:53:28;;;;;;;11.55;2.17;;;;;;;;;;6196192;28;20054;-70
2022/05/16 18:56:30;;;;;;;7.22;2.03;;;;;;;;;;6194972;28;20244;-68
2022/05/16 19:02:44;;;;;;;6.57;1.95;;;;;;;;;;7108389;22;20038;-69
2022/05/16 19:05:48;;;;;;;5.97;1.50;;;;;;;;;;6227930;28;20096;-69
2022/05/16 19:08:52;;;;;;;4.70;1.58;;;;;;;;;;6231523;28;20049;-70
2022/05/16 19:11:55;;;;;;;5.20;1.20;;;;;;;;;;6229441;28;20045;-70
2022/05/16 19:14:56;;;;;;;;;;;;;;;;;;6228409;28;20268;-69
2022/05/16 19:18:00;;;;;;;4.15;1.33;;;;;;;;;;6230460;28;19960;-70
2022/05/16 19:21:05;;;;;;;5.97;1.65;;;;;;;;;;6232481;28;20096;-70
2022/05/16 19:24:09;;;;;;;6.88;1.25;;;;;;;;;;6233177;28;20105;-70
2022/05/16 19:27:11;;;;;;;7.00;1.92;;;;;;;;;;6232830;28;20050;-70
2022/05/16 19:33:36;;;;;;;5.70;2.00;;;;;;;;;;6230864;28;20148;-70
2022/05/16 19:36:40;;;;;;;2.15;1.55;;;;;;;;;;6231188;28;20338;-69